createdAt,value
2022-11-10T00:00:37.532Z,46.25
2022-11-10T00:01:59.183Z,43.00
2022-11-10T00:03:21.375Z,43.45
2022-11-10T00:04:43.123Z,47.90
2022-11-10T00:06:07.573Z,44.15
2022-11-10T00:07:29.857Z,47.15
2022-11-10T00:08:51.857Z,50.67
2022-11-10T00:10:15.443Z,43.72
2022-11-10T00:11:36.622Z,42.30
2022-11-10T00:13:02.919Z,44.95
2022-11-10T00:14:42.887Z,45.67
2022-11-10T00:16:24.594Z,45.40
2022-11-10T00:17:46.481Z,44.55
2022-11-10T00:19:08.156Z,44.13
2022-11-10T00:20:30.313Z,47.38
2022-11-10T00:21:52.736Z,44.80
2022-11-10T00:23:14.436Z,47.58
2022-11-10T00:24:36.128Z,42.38
2022-11-10T00:25:58.277Z,44.85
2022-11-10T00:27:20.088Z,49.88
2022-11-10T00:28:42.043Z,44.83
2022-11-10T00:30:04.240Z,40.22
2022-11-10T00:31:28.617Z,41.05
2022-11-10T00:32:50.379Z,46.10
2022-11-10T00:34:16.052Z,47.58
2022-11-10T00:35:37.868Z,43.65
2022-11-10T00:36:59.483Z,41.67
2022-11-10T00:38:21.088Z,44.15
2022-11-10T00:39:42.515Z,46.25
2022-11-10T00:41:04.587Z,48.60
2022-11-10T00:42:26.256Z,40.90
2022-11-10T00:43:48.433Z,40.90
2022-11-10T00:45:10.602Z,48.60
2022-11-10T00:46:32.220Z,44.22
2022-11-10T00:47:53.665Z,48.05
2022-11-10T00:49:15.269Z,45.03
2022-11-10T00:50:36.888Z,51.30
2022-11-10T00:51:58.400Z,46.97
2022-11-10T00:53:20.710Z,40.00
2022-11-10T00:54:42.817Z,43.70
2022-11-10T00:56:04.192Z,44.35
2022-11-10T00:57:25.676Z,47.42
2022-11-10T00:58:48.144Z,43.20
2022-11-10T01:00:10.241Z,49.58
2022-11-10T01:01:31.663Z,51.10
2022-11-10T01:02:53.231Z,47.03
2022-11-10T01:04:14.940Z,51.92
2022-11-10T01:05:39.195Z,47.70
2022-11-10T01:07:00.927Z,45.80
2022-11-10T01:08:23.048Z,50.80
2022-11-10T01:09:44.650Z,39.85
2022-11-10T01:11:10.038Z,43.55
2022-11-10T01:12:31.988Z,43.63
2022-11-10T01:13:55.429Z,49.83
2022-11-10T01:15:17.406Z,42.92
2022-11-10T01:16:39.121Z,44.33
2022-11-10T01:18:00.806Z,46.70
2022-11-10T01:19:22.240Z,41.13
2022-11-10T01:20:44.346Z,44.97
2022-11-10T01:22:05.955Z,42.50
2022-11-10T01:23:27.951Z,47.92
2022-11-10T01:24:49.604Z,43.38
2022-11-10T01:26:11.534Z,43.97
2022-11-10T01:27:33.189Z,44.55
2022-11-10T01:28:54.950Z,51.28
2022-11-10T01:30:16.671Z,44.92
2022-11-10T01:31:38.247Z,48.35
2022-11-10T01:32:59.799Z,51.38
2022-11-10T01:34:21.756Z,41.13
2022-11-10T01:35:43.367Z,45.83
2022-11-10T01:37:04.797Z,39.78
2022-11-10T01:38:32.566Z,40.88
2022-11-10T01:39:54.041Z,45.05
2022-11-10T01:41:16.257Z,44.70
2022-11-10T01:42:57.391Z,46.83
2022-11-10T01:44:22.372Z,39.00
2022-11-10T01:45:49.436Z,43.20
2022-11-10T01:47:10.860Z,49.25
2022-11-10T01:48:53.384Z,44.97
2022-11-10T01:50:15.352Z,46.97
2022-11-10T01:52:19.616Z,41.58
2022-11-10T01:53:47.229Z,41.85
2022-11-10T01:55:08.994Z,48.70
2022-11-10T01:56:36.401Z,48.35
2022-11-10T01:57:57.984Z,43.33
2022-11-10T01:59:27.728Z,42.83
2022-11-10T02:00:50.451Z,42.38
2022-11-10T02:02:26.605Z,50.58
2022-11-10T02:03:56.572Z,47.70
2022-11-10T02:05:19.207Z,43.70
2022-11-10T02:06:45.318Z,47.15
2022-11-10T02:08:07.816Z,49.15
2022-11-10T02:09:29.084Z,47.20
2022-11-10T02:10:50.387Z,48.00
2022-11-10T02:12:12.474Z,51.92
2022-11-10T02:13:34.471Z,48.97
2022-11-10T02:14:55.860Z,40.90
2022-11-10T02:16:18.007Z,48.47
2022-11-10T02:17:40.316Z,43.95
2022-11-10T02:19:21.455Z,45.97
2022-11-10T02:20:46.696Z,43.33
2022-11-10T02:22:08.306Z,42.15
2022-11-10T02:23:35.358Z,51.38
2022-11-10T02:24:57.413Z,47.22
2022-11-10T02:26:24.462Z,44.25
2022-11-10T02:27:46.185Z,47.63
2022-11-10T02:29:07.347Z,44.15
2022-11-10T02:30:29.222Z,44.45
2022-11-10T02:31:50.623Z,39.85
2022-11-10T02:33:12.056Z,43.55
2022-11-10T02:34:33.388Z,44.67
2022-11-10T02:35:54.912Z,41.10
2022-11-10T02:37:17.018Z,41.10
2022-11-10T02:38:39.369Z,47.70
2022-11-10T02:40:00.958Z,47.92
2022-11-10T02:41:22.553Z,45.47
2022-11-10T02:42:44.104Z,44.63
2022-11-10T02:44:07.834Z,48.28
2022-11-10T02:45:29.589Z,42.47
2022-11-10T02:46:51.242Z,41.00
2022-11-10T02:48:14.920Z,44.42
2022-11-10T02:49:36.416Z,46.60
2022-11-10T02:50:58.043Z,45.63
2022-11-10T02:52:19.505Z,42.70
2022-11-10T02:53:41.268Z,47.00
2022-11-10T02:55:02.937Z,44.00
2022-11-10T02:56:24.716Z,44.15
2022-11-10T02:57:46.157Z,43.25
2022-11-10T02:59:08.054Z,42.45
2022-11-10T03:00:30.001Z,44.70
2022-11-10T03:01:51.678Z,45.33
2022-11-10T03:03:13.133Z,43.58
2022-11-10T03:04:34.742Z,41.83
2022-11-10T03:05:56.427Z,40.85
2022-11-10T03:07:18.136Z,47.90
2022-11-10T03:08:39.704Z,39.28
2022-11-10T03:10:01.146Z,45.80
2022-11-10T03:11:22.522Z,43.80
2022-11-10T03:12:44.072Z,47.05
2022-11-10T03:14:06.076Z,44.47
2022-11-10T03:15:28.607Z,45.40
2022-11-10T03:16:50.350Z,45.78
2022-11-10T03:18:11.853Z,42.10
2022-11-10T03:19:33.404Z,42.67
2022-11-10T03:20:54.836Z,39.85
2022-11-10T03:22:16.642Z,41.08
2022-11-10T03:23:38.499Z,45.90
2022-11-10T03:25:00.349Z,40.28
2022-11-10T03:26:22.598Z,43.35
2022-11-10T03:27:43.907Z,39.92
2022-11-10T03:29:05.861Z,37.67
2022-11-10T03:30:27.539Z,40.63
2022-11-10T03:31:49.061Z,38.17
2022-11-10T03:33:10.348Z,42.38
2022-11-10T03:34:32.079Z,41.67
2022-11-10T03:35:53.308Z,43.22
2022-11-10T03:37:14.856Z,41.88
2022-11-10T03:38:36.155Z,44.08
2022-11-10T03:39:57.635Z,45.00
2022-11-10T03:41:20.651Z,44.13
2022-11-10T03:42:45.777Z,41.03
2022-11-10T03:44:07.741Z,46.22
2022-11-10T03:45:29.057Z,40.05
2022-11-10T03:46:51.742Z,40.85
2022-11-10T03:48:13.670Z,41.50
2022-11-10T03:49:35.360Z,40.35
2022-11-10T03:50:56.765Z,40.95
2022-11-10T03:52:19.038Z,41.67
2022-11-10T03:53:41.059Z,40.55
2022-11-10T03:55:03.700Z,38.10
2022-11-10T03:56:25.727Z,38.30
2022-11-10T03:57:47.436Z,39.38
2022-11-10T03:59:08.681Z,43.30
2022-11-10T04:00:30.543Z,50.50
2022-11-10T04:01:51.863Z,42.58
2022-11-10T04:03:13.652Z,44.22
2022-11-10T04:04:53.932Z,40.10
2022-11-10T04:06:34.562Z,40.45
2022-11-10T04:08:21.250Z,42.78
2022-11-10T04:09:43.107Z,41.60
2022-11-10T04:11:05.233Z,42.80
2022-11-10T04:12:45.581Z,44.55
2022-11-10T04:14:25.925Z,37.58
2022-11-10T04:15:47.395Z,38.65
2022-11-10T04:17:09.823Z,41.13
2022-11-10T04:18:32.172Z,45.95
2022-11-10T04:19:53.662Z,46.15
2022-11-10T04:21:15.070Z,40.60
2022-11-10T04:22:55.317Z,42.78
2022-11-10T04:24:16.681Z,41.38
2022-11-10T04:25:58.237Z,39.63
2022-11-10T04:27:19.567Z,49.38
2022-11-10T04:28:42.279Z,43.67
2022-11-10T04:30:04.735Z,46.95
2022-11-10T04:31:29.182Z,41.17
2022-11-10T04:32:54.370Z,42.30
2022-11-10T04:34:16.199Z,45.10
2022-11-10T04:35:37.773Z,39.83
2022-11-10T04:36:59.254Z,44.05
2022-11-10T04:38:20.994Z,39.67
2022-11-10T04:39:42.551Z,39.70
2022-11-10T04:41:04.384Z,41.50
2022-11-10T04:42:26.003Z,38.83
2022-11-10T04:43:47.590Z,43.95
2022-11-10T04:45:09.658Z,44.55
2022-11-10T04:46:39.752Z,39.85
2022-11-10T04:48:01.672Z,44.67
2022-11-10T04:49:23.614Z,39.03
2022-11-10T04:50:44.975Z,47.35
2022-11-10T04:52:06.715Z,43.00
2022-11-10T04:53:28.356Z,39.17
2022-11-10T04:54:50.162Z,39.90
2022-11-10T04:56:16.651Z,46.20
2022-11-10T04:57:38.010Z,38.13
2022-11-10T04:58:59.546Z,44.50
2022-11-10T05:00:21.106Z,44.70
2022-11-10T05:01:42.316Z,41.05
2022-11-10T05:03:07.631Z,43.10
2022-11-10T05:04:29.220Z,42.47
2022-11-10T05:05:50.400Z,36.75
2022-11-10T05:07:12.271Z,38.25
2022-11-10T05:08:33.858Z,38.92
2022-11-10T05:09:55.125Z,49.53
2022-11-10T05:11:17.579Z,35.08
2022-11-10T05:12:39.176Z,37.63
2022-11-10T05:14:00.938Z,38.75
2022-11-10T05:15:23.645Z,39.45
2022-11-10T05:16:44.897Z,45.88
2022-11-10T05:18:06.669Z,37.63
2022-11-10T05:19:28.315Z,46.55
2022-11-10T05:20:49.784Z,41.65
2022-11-10T05:22:11.137Z,40.47
2022-11-10T05:23:39.350Z,49.20
2022-11-10T05:25:01.179Z,42.40
2022-11-10T05:26:22.796Z,36.72
2022-11-10T05:27:44.097Z,43.20
2022-11-10T05:29:05.947Z,42.45
2022-11-10T05:30:27.598Z,46.38
2022-11-10T05:31:51.716Z,38.50
2022-11-10T05:33:13.943Z,48.13
2022-11-10T05:34:35.542Z,41.10
2022-11-10T05:35:57.308Z,40.47
2022-11-10T05:37:18.616Z,43.88
2022-11-10T05:38:43.474Z,42.47
2022-11-10T05:40:06.539Z,43.22
2022-11-10T05:41:27.908Z,41.92
2022-11-10T05:42:53.047Z,39.17
2022-11-10T05:44:14.580Z,39.08
2022-11-10T05:45:36.832Z,43.80
2022-11-10T05:46:58.061Z,41.35
2022-11-10T05:48:19.617Z,39.50
2022-11-10T05:49:41.290Z,43.47
2022-11-10T05:51:03.117Z,39.45
2022-11-10T05:52:24.745Z,45.22
2022-11-10T05:53:46.332Z,46.35
2022-11-10T05:55:08.548Z,40.67
2022-11-10T05:56:30.147Z,36.63
2022-11-10T05:57:53.189Z,38.45
2022-11-10T05:59:14.738Z,43.10
2022-11-10T06:00:36.632Z,41.10
2022-11-10T06:01:58.182Z,41.30
2022-11-10T06:03:20.436Z,42.28
2022-11-10T06:04:42.327Z,44.38
2022-11-10T06:06:04.583Z,43.92
2022-11-10T06:07:26.467Z,41.70
2022-11-10T06:08:47.696Z,38.00
2022-11-10T06:10:10.721Z,41.90
2022-11-10T06:11:32.147Z,39.88
2022-11-10T06:12:54.193Z,40.95
2022-11-10T06:14:15.569Z,44.53
2022-11-10T06:15:37.288Z,42.15
2022-11-10T06:16:59.210Z,40.38
2022-11-10T06:18:20.710Z,45.17
2022-11-10T06:19:42.456Z,47.13
2022-11-10T06:21:04.002Z,40.85
2022-11-10T06:22:25.392Z,40.40
2022-11-10T06:23:46.673Z,42.35
2022-11-10T06:25:10.758Z,42.70
2022-11-10T06:26:32.150Z,42.40
2022-11-10T06:27:53.845Z,40.60
2022-11-10T06:29:15.589Z,41.83
2022-11-10T06:30:38.384Z,39.08
2022-11-10T06:31:59.592Z,38.40
2022-11-10T06:33:21.619Z,44.70
2022-11-10T06:34:43.851Z,40.10
2022-11-10T06:36:05.657Z,40.47
2022-11-10T06:37:26.802Z,40.20
2022-11-10T06:38:48.626Z,45.63
2022-11-10T06:40:12.979Z,41.15
2022-11-10T06:41:34.822Z,44.53
2022-11-10T06:42:57.466Z,47.53
2022-11-10T06:44:18.976Z,39.22
2022-11-10T06:45:40.442Z,48.33
2022-11-10T06:47:02.188Z,40.58
2022-11-10T06:48:23.889Z,46.30
2022-11-10T06:49:45.190Z,42.75
2022-11-10T06:51:07.100Z,42.25
2022-11-10T06:52:28.910Z,39.85
2022-11-10T06:53:50.532Z,40.92
2022-11-10T06:55:11.888Z,39.75
2022-11-10T06:56:33.574Z,40.35
2022-11-10T06:57:55.507Z,43.38
2022-11-10T06:59:16.833Z,51.67
2022-11-10T07:00:38.597Z,48.47
2022-11-10T07:02:00.409Z,40.85
2022-11-10T07:03:22.439Z,43.22
2022-11-10T07:04:44.419Z,37.60
2022-11-10T07:06:06.571Z,37.05
2022-11-10T07:07:28.323Z,45.95
2022-11-10T07:08:50.097Z,43.78
2022-11-10T07:10:11.554Z,39.40
2022-11-10T07:11:33.234Z,47.63
2022-11-10T07:13:02.509Z,38.65
2022-11-10T07:14:23.854Z,44.33
2022-11-10T07:15:45.602Z,38.90
2022-11-10T07:17:07.610Z,39.42
2022-11-10T07:18:29.458Z,41.85
2022-11-10T07:19:50.865Z,49.45
2022-11-10T07:21:12.580Z,45.72
2022-11-10T07:22:34.235Z,33.35
2022-11-10T07:23:56.004Z,41.72
2022-11-10T07:25:17.617Z,38.72
2022-11-10T07:26:38.999Z,42.88
2022-11-10T07:28:02.395Z,38.60
2022-11-10T07:29:25.408Z,39.25
2022-11-10T07:30:46.995Z,40.17
2022-11-10T07:32:08.701Z,39.03
2022-11-10T07:33:30.186Z,39.72
2022-11-10T07:34:51.545Z,42.70
2022-11-10T07:36:13.359Z,37.70
2022-11-10T07:37:34.495Z,38.17
2022-11-10T07:38:56.411Z,38.15
2022-11-10T07:40:18.040Z,38.40
2022-11-10T07:41:39.839Z,41.28
2022-11-10T07:43:01.449Z,33.55
2022-11-10T07:44:22.682Z,40.03
2022-11-10T07:45:44.130Z,36.10
2022-11-10T07:47:06.092Z,40.45
2022-11-10T07:48:27.380Z,37.60
2022-11-10T07:49:48.656Z,35.17
2022-11-10T07:51:10.248Z,36.20
2022-11-10T07:52:31.965Z,40.15
2022-11-10T07:53:53.676Z,31.35
2022-11-10T07:55:15.372Z,40.30
2022-11-10T07:56:36.753Z,38.40
2022-11-10T07:57:59.281Z,43.40
2022-11-10T07:59:20.768Z,35.08
2022-11-10T08:00:43.507Z,37.70
2022-11-10T08:02:05.983Z,40.03
2022-11-10T08:03:27.594Z,33.35
2022-11-10T08:04:48.910Z,36.25
2022-11-10T08:06:10.561Z,47.05
2022-11-10T08:07:32.408Z,40.95
2022-11-10T08:08:53.797Z,36.17
2022-11-10T08:10:15.777Z,36.08
2022-11-10T08:11:37.315Z,39.00
2022-11-10T08:13:01.669Z,35.90
2022-11-10T08:14:23.521Z,37.45
2022-11-10T08:15:45.164Z,32.15
2022-11-10T08:17:06.464Z,37.63
2022-11-10T08:18:33.959Z,36.08
2022-11-10T08:19:56.863Z,36.42
2022-11-10T08:21:18.242Z,31.25
2022-11-10T08:22:40.623Z,35.40
2022-11-10T08:24:02.416Z,36.55
2022-11-10T08:25:23.790Z,38.53
2022-11-10T08:26:45.725Z,32.10
2022-11-10T08:28:08.712Z,36.95
2022-11-10T08:29:30.202Z,35.55
2022-11-10T08:30:52.126Z,33.97
2022-11-10T08:32:13.763Z,32.08
2022-11-10T08:33:35.395Z,34.20
2022-11-10T08:34:57.164Z,37.33
2022-11-10T08:36:18.801Z,35.60
2022-11-10T08:37:40.090Z,38.10
2022-11-10T08:39:01.641Z,29.75
2022-11-10T08:40:27.798Z,31.00
2022-11-10T08:41:49.371Z,38.15
2022-11-10T08:43:13.130Z,33.17
2022-11-10T08:44:34.677Z,32.92
2022-11-10T08:45:57.210Z,35.05
2022-11-10T08:47:18.679Z,36.35
2022-11-10T08:48:40.367Z,34.63
2022-11-10T08:50:01.648Z,34.42
2022-11-10T08:51:23.309Z,32.67
2022-11-10T08:52:44.785Z,38.20
2022-11-10T08:54:06.542Z,32.25
2022-11-10T08:55:28.565Z,33.45
2022-11-10T08:56:50.582Z,35.85
2022-11-10T08:58:21.409Z,30.95
2022-11-10T08:59:43.037Z,29.08
2022-11-10T09:01:10.273Z,30.52
2022-11-10T09:02:32.120Z,37.28
2022-11-10T09:03:53.580Z,31.67
2022-11-10T09:05:15.554Z,29.75
2022-11-10T09:06:36.789Z,29.30
2022-11-10T09:07:58.460Z,30.88
2022-11-10T09:09:20.111Z,30.90
2022-11-10T09:10:45.420Z,39.88
2022-11-10T09:12:06.757Z,32.85
2022-11-10T09:13:30.569Z,33.40
2022-11-10T09:14:52.739Z,30.77
2022-11-10T09:16:14.349Z,33.13
2022-11-10T09:17:37.053Z,37.42
2022-11-10T09:18:58.638Z,32.65
2022-11-10T09:20:20.270Z,29.45
2022-11-10T09:21:41.642Z,32.53
2022-11-10T09:23:08.153Z,29.60
2022-11-10T09:24:31.486Z,28.90
2022-11-10T09:25:55.985Z,29.15
2022-11-10T09:27:17.707Z,28.25
2022-11-10T09:28:39.160Z,31.48
2022-11-10T09:30:00.660Z,33.67
2022-11-10T09:31:22.313Z,29.17
2022-11-10T09:32:46.978Z,29.23
2022-11-10T09:34:09.810Z,27.42
2022-11-10T09:35:31.088Z,29.00
2022-11-10T09:36:52.270Z,29.30
2022-11-10T09:38:13.903Z,29.45
2022-11-10T09:39:35.740Z,31.02
2022-11-10T09:41:15.113Z,30.27
2022-11-10T09:42:42.771Z,26.77
2022-11-10T09:44:16.000Z,24.17
2022-11-10T09:45:42.977Z,27.67
2022-11-10T09:47:42.252Z,30.70
2022-11-10T09:49:30.625Z,28.02
2022-11-10T09:50:59.315Z,30.70
2022-11-10T09:52:23.644Z,28.63
2022-11-10T09:53:52.352Z,27.58
2022-11-10T09:55:43.175Z,29.67
2022-11-10T09:57:11.476Z,22.52
2022-11-10T09:58:45.174Z,26.85
2022-11-10T10:00:07.919Z,29.67
2022-11-10T10:01:46.149Z,28.08
2022-11-10T10:03:14.102Z,29.88
2022-11-10T10:05:13.499Z,26.35
2022-11-10T10:07:10.275Z,26.88
2022-11-10T10:08:43.759Z,24.65
2022-11-10T10:10:27.562Z,25.70
2022-11-10T10:12:38.144Z,24.67
2022-11-10T10:14:34.022Z,25.70
2022-11-10T10:16:24.154Z,21.17
2022-11-10T10:18:41.017Z,30.25
2022-11-10T10:20:44.193Z,24.80
2022-11-10T10:22:14.728Z,27.75
2022-11-10T10:24:08.547Z,28.50
2022-11-10T10:25:28.045Z,22.95
2022-11-10T10:26:55.902Z,22.13
2022-11-10T10:28:42.266Z,27.70
2022-11-10T10:30:16.587Z,25.48
2022-11-10T10:31:50.317Z,26.23
2022-11-10T10:33:22.824Z,21.38
2022-11-10T10:34:45.992Z,24.27
2022-11-10T10:36:27.880Z,22.67
2022-11-10T10:37:55.688Z,23.45
2022-11-10T10:39:51.287Z,21.38
2022-11-10T10:41:27.442Z,22.77
2022-11-10T10:42:49.381Z,21.42
2022-11-10T10:44:16.552Z,23.67
2022-11-10T10:45:42.309Z,20.67
2022-11-10T10:47:05.024Z,19.35
2022-11-10T10:48:30.634Z,21.95
2022-11-10T10:49:52.466Z,20.20
2022-11-10T10:51:34.234Z,20.48
2022-11-10T10:53:25.368Z,25.13
2022-11-10T10:54:47.068Z,19.95
2022-11-10T10:56:21.515Z,23.17
2022-11-10T10:57:53.139Z,23.17
2022-11-10T10:59:23.800Z,22.63
2022-11-10T11:01:26.607Z,21.98
2022-11-10T11:03:30.803Z,21.05
2022-11-10T11:05:19.710Z,23.48
2022-11-10T11:06:55.402Z,23.02
2022-11-10T11:08:19.600Z,17.50
2022-11-10T11:09:45.151Z,23.70
2022-11-10T11:11:11.331Z,27.08
2022-11-10T11:12:33.032Z,20.90
2022-11-10T11:14:19.960Z,25.38
2022-11-10T11:15:41.690Z,19.80
2022-11-10T11:17:22.356Z,22.25
2022-11-10T11:18:44.016Z,20.80
2022-11-10T11:20:13.647Z,18.17
2022-11-10T11:21:48.867Z,20.35
2022-11-10T11:23:54.440Z,18.90
2022-11-10T11:25:27.732Z,20.48
2022-11-10T11:27:15.479Z,18.23
2022-11-10T11:29:24.057Z,17.95
2022-11-10T11:31:29.524Z,22.67
2022-11-10T11:33:17.805Z,16.80
2022-11-10T11:35:19.823Z,23.35
2022-11-10T11:37:29.327Z,18.73
2022-11-10T11:39:43.313Z,18.40
2022-11-10T11:41:19.159Z,15.00
2022-11-10T11:43:38.705Z,21.25
2022-11-10T11:45:24.150Z,16.27
2022-11-10T11:47:26.036Z,20.83
2022-11-10T11:49:14.719Z,16.15
2022-11-10T11:50:58.938Z,18.35
2022-11-10T11:52:36.255Z,19.58
2022-11-10T11:54:22.397Z,17.40
2022-11-10T11:56:02.360Z,15.40
2022-11-10T11:57:45.805Z,14.93
2022-11-10T11:59:56.775Z,22.42
2022-11-10T12:01:23.544Z,19.17
2022-11-10T12:02:59.807Z,17.02
2022-11-10T12:04:42.901Z,15.32
2022-11-10T12:06:54.500Z,13.98
2022-11-10T12:08:15.911Z,14.43
2022-11-10T12:09:49.306Z,17.08
2022-11-10T12:11:30.082Z,13.18
2022-11-10T12:13:37.081Z,12.77
2022-11-10T12:15:19.758Z,16.90
2022-11-10T12:16:52.479Z,12.57
2022-11-10T12:18:36.354Z,15.32
2022-11-10T12:20:23.738Z,15.65
2022-11-10T12:21:59.870Z,18.58
2022-11-10T12:23:58.940Z,18.35
2022-11-10T12:25:34.336Z,20.20
2022-11-10T12:27:39.900Z,12.23
2022-11-10T12:29:27.308Z,12.75
2022-11-10T12:30:56.392Z,14.48
2022-11-10T12:32:38.133Z,12.23
2022-11-10T12:34:26.505Z,11.98
2022-11-10T12:35:48.625Z,14.10
2022-11-10T12:37:41.064Z,12.73
2022-11-10T12:39:25.078Z,12.57
2022-11-10T12:41:02.149Z,14.57
2022-11-10T12:42:28.986Z,14.90
2022-11-10T12:44:42.346Z,11.48
2022-11-10T12:46:09.060Z,13.80
2022-11-10T12:47:41.263Z,13.93
2022-11-10T12:49:19.207Z,11.85
2022-11-10T12:51:05.247Z,16.30
2022-11-10T12:52:45.847Z,12.38
2022-11-10T12:54:16.643Z,12.32
2022-11-10T12:56:13.755Z,8.88
2022-11-10T12:57:37.730Z,14.57
2022-11-10T12:59:31.779Z,10.32
2022-11-10T13:01:02.298Z,11.75
2022-11-10T13:04:01.069Z,11.23
2022-11-10T13:05:41.982Z,9.85
2022-11-10T13:07:11.795Z,14.77
2022-11-10T13:08:47.007Z,11.68
2022-11-10T13:10:28.077Z,13.43
2022-11-10T13:12:23.360Z,15.90
2022-11-10T13:14:00.587Z,11.40
2022-11-10T13:15:51.708Z,14.35
2022-11-10T13:17:39.218Z,11.18
2022-11-10T13:19:01.221Z,11.27
2022-11-10T13:20:54.799Z,15.07
2022-11-10T13:22:37.154Z,12.02
2022-11-10T13:24:02.637Z,7.82
2022-11-10T13:25:38.856Z,12.90
2022-11-10T13:27:12.543Z,8.98
2022-11-10T13:28:58.579Z,11.18
2022-11-10T13:30:45.580Z,12.75
2022-11-10T13:32:26.517Z,13.35
2022-11-10T13:34:07.780Z,11.73
2022-11-10T13:36:50.936Z,10.32
2022-11-10T13:38:39.449Z,14.63
2022-11-10T13:40:25.053Z,9.95
2022-11-10T13:41:47.890Z,9.45
2022-11-10T13:43:24.780Z,14.18
2022-11-10T13:44:51.000Z,9.88
2022-11-10T13:46:12.591Z,11.68
2022-11-10T13:48:18.308Z,11.93
2022-11-10T13:50:36.292Z,10.07
2022-11-10T13:52:15.486Z,10.65
2022-11-10T13:54:00.252Z,11.27
2022-11-10T13:55:51.958Z,10.90
2022-11-10T13:57:38.217Z,9.77
2022-11-10T13:58:59.710Z,8.55
2022-11-10T14:00:20.884Z,9.68
2022-11-10T14:01:42.439Z,10.50
2022-11-10T14:03:07.561Z,14.32
2022-11-10T14:04:45.077Z,15.77
2022-11-10T14:06:13.685Z,14.32
2022-11-10T14:07:41.274Z,9.70
2022-11-10T14:09:40.729Z,11.57
2022-11-10T14:11:11.468Z,14.80
2022-11-10T14:14:28.913Z,9.82
2022-11-10T14:15:51.847Z,17.23
2022-11-10T14:17:21.392Z,10.90
2022-11-10T14:19:33.609Z,12.32
2022-11-10T14:21:00.321Z,14.27
2022-11-10T14:22:29.953Z,12.05
2022-11-10T14:24:00.335Z,13.85
2022-11-10T14:25:43.322Z,9.82
2022-11-10T14:27:15.777Z,19.63
2022-11-10T14:28:38.962Z,10.50
2022-11-10T14:30:30.169Z,13.20
2022-11-10T14:31:52.003Z,16.25
2022-11-10T14:33:15.065Z,14.25
2022-11-10T14:34:48.518Z,12.15
2022-11-10T14:36:14.014Z,10.32
2022-11-10T14:37:35.386Z,16.40
2022-11-10T14:38:58.244Z,12.38
2022-11-10T14:40:20.892Z,15.40
2022-11-10T14:41:49.652Z,16.38
2022-11-10T14:43:38.113Z,15.05
2022-11-10T14:45:19.303Z,14.80
2022-11-10T14:46:40.536Z,17.95
2022-11-10T14:48:02.079Z,14.63
2022-11-10T14:49:25.884Z,16.17
2022-11-10T14:50:48.295Z,27.05
2022-11-10T14:52:13.352Z,26.38
2022-11-10T14:53:50.263Z,27.23
2022-11-10T14:55:26.956Z,18.98
2022-11-10T14:56:48.921Z,14.90
2022-11-10T14:58:21.483Z,16.20
2022-11-10T14:59:43.446Z,13.18
2022-11-10T15:01:07.299Z,30.85
2022-11-10T15:02:29.072Z,13.27
2022-11-10T15:03:50.908Z,9.90
2022-11-10T15:05:15.626Z,13.43
2022-11-10T15:06:41.945Z,17.83
2022-11-10T15:08:10.229Z,11.15
2022-11-10T15:09:33.047Z,20.90
2022-11-10T15:10:56.308Z,18.35
2022-11-10T15:12:27.213Z,16.52
2022-11-10T15:13:48.624Z,12.73
2022-11-10T15:15:23.165Z,15.98
2022-11-10T15:17:14.746Z,27.85
2022-11-10T15:18:36.581Z,9.93
2022-11-10T15:19:58.055Z,16.33
2022-11-10T15:21:22.980Z,16.45
2022-11-10T15:22:44.585Z,18.40
2022-11-10T15:24:07.132Z,11.80
2022-11-10T15:25:40.763Z,23.45
2022-11-10T15:27:02.591Z,19.17
2022-11-10T15:28:36.883Z,15.63
2022-11-10T15:30:01.949Z,11.23
2022-11-10T15:31:32.769Z,13.18
2022-11-10T15:32:59.418Z,14.00
2022-11-10T15:34:42.946Z,11.40
2022-11-10T15:36:23.535Z,12.20
2022-11-10T15:38:06.404Z,17.60
2022-11-10T15:39:28.889Z,18.42
2022-11-10T15:40:51.689Z,13.50
2022-11-10T15:42:21.465Z,16.17
2022-11-10T15:43:42.935Z,16.25
2022-11-10T15:45:05.192Z,16.30
2022-11-10T15:46:27.379Z,23.55
2022-11-10T15:47:48.861Z,27.05
2022-11-10T15:49:30.172Z,24.02
2022-11-10T15:50:55.013Z,22.02
2022-11-10T15:52:23.465Z,21.02
2022-11-10T15:53:48.541Z,21.98
2022-11-10T15:55:24.048Z,27.08
2022-11-10T15:56:45.683Z,26.13
2022-11-10T15:58:22.693Z,31.23
2022-11-10T15:59:45.401Z,34.10
2022-11-10T16:01:10.892Z,41.63
2022-11-10T16:02:32.501Z,48.53
2022-11-10T16:03:54.084Z,45.25
2022-11-10T16:05:15.860Z,59.13
2022-11-10T16:06:38.559Z,67.03
2022-11-10T16:08:00.093Z,62.90
2022-11-10T16:09:22.002Z,53.25
2022-11-10T16:10:47.469Z,66.47
2022-11-10T16:12:23.329Z,69.75
2022-11-10T16:13:45.840Z,48.60
2022-11-10T16:15:18.221Z,39.17
2022-11-10T16:16:41.920Z,35.25
2022-11-10T16:18:04.471Z,38.20
2022-11-10T16:19:25.939Z,40.17
2022-11-10T16:20:48.679Z,32.88
2022-11-10T16:22:11.450Z,36.78
2022-11-10T16:23:33.061Z,31.23
2022-11-10T16:24:54.641Z,27.20
2022-11-10T16:26:23.676Z,28.90
2022-11-10T16:27:44.913Z,22.17
2022-11-10T16:29:13.901Z,35.28
2022-11-10T16:30:35.395Z,28.48
2022-11-10T16:31:57.026Z,28.88
2022-11-10T16:33:21.864Z,28.58
2022-11-10T16:34:43.357Z,26.25
2022-11-10T16:36:05.268Z,28.83
2022-11-10T16:37:26.800Z,29.42
2022-11-10T16:38:48.969Z,25.63
2022-11-10T16:40:16.603Z,29.27
2022-11-10T16:41:38.159Z,32.20
2022-11-10T16:42:59.762Z,23.70
2022-11-10T16:44:25.299Z,28.25
2022-11-10T16:45:48.768Z,28.80
2022-11-10T16:47:18.965Z,26.40
2022-11-10T16:48:45.107Z,24.02
2022-11-10T16:50:23.977Z,27.40
2022-11-10T16:51:48.763Z,23.63
2022-11-10T16:53:20.479Z,26.20
2022-11-10T16:54:41.843Z,32.60
2022-11-10T16:56:03.175Z,29.08
2022-11-10T16:57:25.157Z,33.17
2022-11-10T16:58:46.630Z,25.20
2022-11-10T17:00:09.464Z,20.38
2022-11-10T17:01:35.089Z,27.27
2022-11-10T17:03:00.346Z,27.35
2022-11-10T17:04:22.173Z,26.02
2022-11-10T17:05:44.081Z,25.27
2022-11-10T17:07:14.725Z,22.20
2022-11-10T17:08:36.434Z,27.60
2022-11-10T17:09:59.232Z,25.98
2022-11-10T17:11:21.712Z,27.70
2022-11-10T17:12:43.506Z,19.45
2022-11-10T17:14:06.984Z,19.42
2022-11-10T17:15:28.687Z,21.85
2022-11-10T17:16:50.108Z,25.38
2022-11-10T17:18:17.024Z,18.48
2022-11-10T17:19:38.710Z,18.60
2022-11-10T17:21:03.185Z,22.08
2022-11-10T17:22:25.684Z,16.60
2022-11-10T17:23:47.143Z,19.85
2022-11-10T17:25:18.558Z,24.13
2022-11-10T17:26:40.031Z,17.67
2022-11-10T17:28:02.454Z,22.35
2022-11-10T17:29:24.583Z,27.58
2022-11-10T17:30:46.752Z,26.05
2022-11-10T17:32:07.944Z,23.80
2022-11-10T17:33:29.769Z,23.00
2022-11-10T17:34:51.318Z,28.17
2022-11-10T17:36:18.857Z,28.83
2022-11-10T17:37:42.655Z,25.63
2022-11-10T17:39:04.618Z,26.27
2022-11-10T17:40:28.410Z,20.23
2022-11-10T17:41:51.407Z,19.52
2022-11-10T17:43:14.537Z,19.55
2022-11-10T17:44:36.004Z,23.52
2022-11-10T17:45:57.581Z,21.23
2022-11-10T17:47:19.063Z,18.10
2022-11-10T17:48:40.874Z,19.58
2022-11-10T17:50:02.369Z,27.15
2022-11-10T17:51:23.703Z,22.13
2022-11-10T17:52:46.303Z,21.20
2022-11-10T17:54:13.923Z,20.35
2022-11-10T17:55:36.953Z,21.58
2022-11-10T17:56:58.839Z,16.65
2022-11-10T17:58:20.797Z,20.13
2022-11-10T17:59:42.362Z,15.73
2022-11-10T18:01:18.651Z,20.27
2022-11-10T18:02:41.217Z,15.82
2022-11-10T18:04:03.032Z,12.45
2022-11-10T18:05:24.387Z,13.43
2022-11-10T18:06:45.776Z,15.95
2022-11-10T18:08:07.772Z,14.73
2022-11-10T18:09:29.130Z,17.88
2022-11-10T18:10:52.304Z,15.23
2022-11-10T18:12:13.578Z,15.55
2022-11-10T18:13:36.139Z,18.13
2022-11-10T18:14:57.957Z,12.18
2022-11-10T18:16:20.062Z,14.55
2022-11-10T18:17:42.286Z,14.93
2022-11-10T18:19:04.056Z,12.80
2022-11-10T18:20:25.459Z,14.60
2022-11-10T18:21:47.285Z,13.43
2022-11-10T18:23:12.441Z,11.48
2022-11-10T18:24:34.385Z,15.98
2022-11-10T18:25:55.824Z,15.82
2022-11-10T18:27:17.451Z,19.15
2022-11-10T18:28:40.028Z,17.05
2022-11-10T18:30:02.094Z,20.00
2022-11-10T18:31:23.523Z,12.13
2022-11-10T18:32:45.034Z,18.20
2022-11-10T18:34:06.341Z,22.63
2022-11-10T18:35:28.604Z,15.98
2022-11-10T18:36:52.266Z,21.33
2022-11-10T18:38:14.500Z,26.23
2022-11-10T18:39:36.128Z,17.58
2022-11-10T18:41:25.768Z,18.45
2022-11-10T18:42:47.887Z,24.85
2022-11-10T18:44:09.360Z,17.75
2022-11-10T18:45:30.905Z,17.98
2022-11-10T18:46:52.949Z,17.02
2022-11-10T18:48:14.341Z,20.15
2022-11-10T18:49:36.182Z,17.38